Time;durP1;ratioP1;P1;durP2;ratioP2;P2;SDS_P1;SDS_P2;PMS_P1;PMS_P2;Temp;Humidity;BMP_temperature;BMP_pressure;BME280_temperature;BME280_humidity;BME280_pressure;Samples;Min_cycle;Max_cycle;Signal;HPM_P1;HPM_P2
2023/07/16 00:00:35;;;;;;;22.58;9.52;;;;;;;;;;5053737;28;20021;-77
2023/07/16 00:03:01;;;;;;;22.73;9.40;;;;;;;;;;5053016;28;20017;-78
2023/07/16 00:05:27;;;;;;;21.48;9.70;;;;;;;;;;5052869;28;20017;-78
2023/07/16 00:07:53;;;;;;;19.73;8.98;;;;;;;;;;5053555;28;20029;-78
2023/07/16 00:10:19;;;;;;;14.27;9.80;;;;;;;;;;5054008;28;20025;-78
2023/07/16 00:12:46;;;;;;;17.55;10.00;;;;;;;;;;5054038;28;20029;-79
2023/07/16 00:15:12;;;;;;;14.57;9.63;;;;;;;;;;5052306;28;20021;-79
2023/07/16 00:17:38;;;;;;;16.73;9.38;;;;;;;;;;5053501;28;20413;-78
2023/07/16 00:20:05;;;;;;;17.35;9.50;;;;;;;;;;5053784;28;20021;-79
2023/07/16 00:22:32;;;;;;;16.77;9.73;;;;;;;;;;5053533;28;20024;-79
2023/07/16 00:24:58;;;;;;;19.50;10.75;;;;;;;;;;5053716;28;20021;-78
2023/07/16 00:27:25;;;;;;;14.93;9.73;;;;;;;;;;5053520;28;20032;-79
2023/07/16 00:29:51;;;;;;;17.25;9.73;;;;;;;;;;5035872;28;20174;-79
2023/07/16 00:32:17;;;;;;;15.75;9.90;;;;;;;;;;5052502;28;20066;-79
2023/07/16 00:34:44;;;;;;;14.27;9.75;;;;;;;;;;5051985;28;20029;-79
2023/07/16 00:37:10;;;;;;;19.98;10.50;;;;;;;;;;5053225;28;20029;-79
2023/07/16 00:39:36;;;;;;;20.80;10.75;;;;;;;;;;5053660;28;20016;-79
2023/07/16 00:42:03;;;;;;;21.35;11.23;;;;;;;;;;5052250;28;20017;-78
2023/07/16 00:44:29;;;;;;;13.13;9.52;;;;;;;;;;5053557;28;20029;-79
2023/07/16 00:46:55;;;;;;;16.80;10.43;;;;;;;;;;5052969;28;20086;-79
2023/07/16 00:49:21;;;;;;;16.40;9.65;;;;;;;;;;5052388;28;20032;-79
2023/07/16 00:51:47;;;;;;;16.42;9.85;;;;;;;;;;5052147;28;20060;-79
2023/07/16 00:54:14;;;;;;;13.90;10.07;;;;;;;;;;5053433;28;20360;-79
2023/07/16 00:56:40;;;;;;;20.77;10.10;;;;;;;;;;5052127;28;20031;-79
2023/07/16 00:59:06;;;;;;;15.07;9.77;;;;;;;;;;5053302;28;20016;-79
2023/07/16 01:01:32;;;;;;;15.10;10.10;;;;;;;;;;5053428;28;20017;-78
2023/07/16 01:03:58;;;;;;;17.40;9.50;;;;;;;;;;5052891;28;20024;-79
2023/07/16 01:06:25;;;;;;;18.65;10.50;;;;;;;;;;5053229;28;20459;-78
2023/07/16 01:09:14;;;;;;;15.23;9.98;;;;;;;;;;5053742;28;20033;-79
2023/07/16 01:11:40;;;;;;;16.48;9.75;;;;;;;;;;5054222;28;20033;-79
2023/07/16 01:14:08;;;;;;;19.88;10.00;;;;;;;;;;5057414;28;20045;-79
2023/07/16 01:16:34;;;;;;;18.25;10.10;;;;;;;;;;5055554;28;20039;-79
2023/07/16 01:19:00;;;;;;;15.95;10.48;;;;;;;;;;5055604;28;20036;-79
2023/07/16 01:21:29;;;;;;;15.95;10.32;;;;;;;;;;5056925;28;20021;-78
2023/07/16 01:24:02;;;;;;;24.95;10.88;;;;;;;;;;5043304;28;20025;-79
2023/07/16 01:26:48;;;;;;;18.73;10.88;;;;;;;;;;5055733;28;20028;-79
2023/07/16 01:29:33;;;;;;;18.40;9.98;;;;;;;;;;5055248;28;20021;-79
2023/07/16 01:32:04;;;;;;;24.23;9.23;;;;;;;;;;5055791;28;20021;-79
2023/07/16 01:34:33;;;;;;;26.47;9.80;;;;;;;;;;5056232;28;20073;-79
2023/07/16 01:37:00;;;;;;;21.30;10.82;;;;;;;;;;5055200;28;20017;-79
2023/07/16 01:39:26;;;;;;;16.38;11.50;;;;;;;;;;5055735;28;20031;-79
2023/07/16 01:41:52;;;;;;;18.38;10.27;;;;;;;;;;5056355;28;20117;-79
2023/07/16 01:44:18;;;;;;;15.43;10.57;;;;;;;;;;5055176;28;20024;-79
2023/07/16 01:46:44;;;;;;;20.23;11.10;;;;;;;;;;5056438;28;20355;-79
2023/07/16 01:49:10;;;;;;;18.63;11.43;;;;;;;;;;5056386;28;20361;-78
2023/07/16 01:51:37;;;;;;;16.30;10.25;;;;;;;;;;5055250;28;20021;-79
2023/07/16 01:54:03;;;;;;;21.52;10.60;;;;;;;;;;5055208;28;20025;-79
2023/07/16 01:56:29;;;;;;;15.07;10.15;;;;;;;;;;5055999;28;20028;-79
2023/07/16 01:58:55;;;;;;;17.48;10.70;;;;;;;;;;5056482;28;20521;-78
2023/07/16 02:01:22;;;;;;;15.63;10.90;;;;;;;;;;5055492;28;20433;-79
2023/07/16 02:03:48;;;;;;;25.85;10.32;;;;;;;;;;5054836;28;20086;-79
2023/07/16 02:06:14;;;;;;;19.33;10.50;;;;;;;;;;5055980;28;20028;-79
2023/07/16 02:08:40;;;;;;;20.40;11.23;;;;;;;;;;5055927;28;20035;-79
2023/07/16 02:11:06;;;;;;;23.23;11.65;;;;;;;;;;5055976;28;20043;-79
2023/07/16 02:13:32;;;;;;;20.83;11.40;;;;;;;;;;5055738;28;20070;-79
2023/07/16 02:15:58;;;;;;;28.30;13.02;;;;;;;;;;5055702;28;20054;-79
2023/07/16 02:18:24;;;;;;;23.77;12.18;;;;;;;;;;5055490;28;20028;-79
2023/07/16 02:20:51;;;;;;;23.27;12.45;;;;;;;;;;5053112;28;20021;-79
2023/07/16 02:23:17;;;;;;;23.88;12.75;;;;;;;;;;5055603;28;20071;-79
2023/07/16 02:25:43;;;;;;;26.83;12.80;;;;;;;;;;5055672;28;20019;-79
2023/07/16 02:28:09;;;;;;;23.77;12.52;;;23.90;99.90;;;;;;5055211;28;20044;-79
2023/07/16 02:30:35;;;;;;;18.60;12.77;;;23.80;99.90;;;;;;5054336;28;20448;-79
2023/07/16 02:33:00;;;;;;;26.15;12.65;;;23.70;99.90;;;;;;5054364;28;20456;-79
2023/07/16 02:35:26;;;;;;;21.75;12.68;;;23.70;99.90;;;;;;5053939;28;20021;-79
2023/07/16 02:37:52;;;;;;;27.15;12.85;;;23.60;99.90;;;;;;5055167;28;20029;-79
2023/07/16 02:40:18;;;;;;;19.88;11.52;;;23.60;99.90;;;;;;5054087;28;20057;-79
2023/07/16 02:42:44;;;;;;;22.85;12.18;;;23.60;99.90;;;;;;5054914;28;20044;-79
2023/07/16 02:45:10;;;;;;;24.08;11.30;;;23.60;99.90;;;;;;5055497;28;20029;-79
2023/07/16 02:47:35;;;;;;;20.92;10.05;;;23.60;99.90;;;;;;5055289;28;20053;-79
2023/07/16 02:50:02;;;;;;;22.98;10.15;;;23.60;99.90;;;;;;5055435;28;20021;-79
2023/07/16 02:52:27;;;;;;;12.80;7.40;;;23.60;99.90;;;;;;5055224;28;20040;-79
2023/07/16 02:54:53;;;;;;;13.48;7.93;;;23.60;99.90;;;;;;5055205;28;20067;-78
2023/07/16 02:57:21;;;;;;;18.52;7.70;;;23.60;99.90;;;;;;5054845;28;20029;-79
2023/07/16 02:59:46;;;;;;;11.18;6.60;;;23.60;99.90;;;;;;5048113;28;20410;-78
2023/07/16 03:02:12;;;;;;;14.40;7.47;;;23.70;99.90;;;;;;5054660;28;20017;-79
2023/07/16 03:04:38;;;;;;;18.20;8.18;;;23.70;99.90;;;;;;5054954;28;20078;-79
2023/07/16 03:07:04;;;;;;;12.63;7.40;;;23.70;99.90;;;;;;5054896;28;20048;-79
2023/07/16 03:09:30;;;;;;;14.27;7.53;;;23.70;99.90;;;;;;5054779;28;20017;-78
2023/07/16 03:11:56;;;;;;;15.55;7.55;;;23.60;99.90;;;;;;5053406;28;20039;-79
2023/07/16 03:14:21;;;;;;;17.02;7.47;;;23.60;99.90;;;;;;5054772;28;20104;-78
2023/07/16 03:16:47;;;;;;;16.52;8.18;;;23.60;99.90;;;;;;5054162;28;20017;-79
2023/07/16 03:19:13;;;;;;;13.88;8.77;;;23.60;99.90;;;;;;5054709;28;20040;-78
2023/07/16 03:21:39;;;;;;;15.45;9.98;;;23.50;99.90;;;;;;5053235;28;20021;-79
2023/07/16 03:24:05;;;;;;;19.17;9.82;;;23.50;99.90;;;;;;5054289;28;20063;-79
2023/07/16 03:26:31;;;;;;;16.88;10.30;;;23.40;99.90;;;;;;5054799;28;20471;-79
2023/07/16 03:28:56;;;;;;;15.60;10.10;;;23.40;99.90;;;;;;5053177;28;20035;-79
2023/07/16 03:31:22;;;;;;;16.23;10.15;;;23.40;99.90;;;;;;5051747;28;20112;-79
2023/07/16 03:33:48;;;;;;;13.82;9.65;;;23.50;99.90;;;;;;5054366;28;20086;-79
2023/07/16 03:36:13;;;;;;;16.02;9.80;;;23.50;99.90;;;;;;5054493;28;20029;-79
2023/07/16 03:38:39;;;;;;;17.50;9.05;;;23.40;99.90;;;;;;5054016;28;20021;-79
2023/07/16 03:41:05;;;;;;;22.88;10.13;;;23.40;99.90;;;;;;5054027;28;20013;-79
2023/07/16 03:43:31;;;;;;;15.18;8.82;;;23.40;99.90;;;;;;5053971;28;20474;-78
2023/07/16 03:45:56;;;;;;;15.85;9.63;;;23.40;99.90;;;;;;5053787;28;20459;-79
2023/07/16 03:48:22;;;;;;;18.52;9.43;;;23.40;99.90;;;;;;5054191;28;20522;-79
2023/07/16 03:50:48;;;;;;;17.38;9.68;;;23.40;99.90;;;;;;5052880;28;20370;-79
2023/07/16 03:53:14;;;;;;;18.27;9.73;;;23.40;99.90;;;;;;5053513;28;20553;-79
2023/07/16 03:55:39;;;;;;;14.68;9.90;;;23.40;99.90;;;;;;5054075;28;20096;-79
2023/07/16 03:58:05;;;;;;;18.92;9.85;;;23.50;99.90;;;;;;5053820;28;20048;-79
2023/07/16 04:00:31;;;;;;;17.95;11.23;;;23.50;99.90;;;;;;5052295;28;20025;-78
2023/07/16 04:02:57;;;;;;;19.20;10.32;;;23.50;99.90;;;;;;5052477;28;20021;-79
2023/07/16 04:05:23;;;;;;;17.95;11.38;;;23.50;99.90;;;;;;5052544;28;20023;-79
2023/07/16 04:07:49;;;;;;;21.10;11.27;;;23.60;99.90;;;;;;5052440;28;20069;-79
2023/07/16 04:10:14;;;;;;;22.15;12.32;;;23.60;99.90;;;;;;5052525;28;20024;-79
2023/07/16 04:12:40;;;;;;;22.75;11.30;;;;;;;;;;5053051;28;20021;-78
2023/07/16 04:15:11;;;;;;;19.40;11.30;;;23.70;99.90;;;;;;5053396;28;20029;-79
2023/07/16 04:17:37;;;;;;;15.95;10.90;;;23.60;99.90;;;;;;5053107;28;20024;-79
2023/07/16 04:20:06;;;;;;;22.27;9.93;;;23.70;99.90;;;;;;5053150;28;20032;-79
2023/07/16 04:22:33;;;;;;;16.60;9.70;;;23.70;99.90;;;;;;5053073;28;20529;-79
2023/07/16 04:24:58;;;;;;;13.88;9.10;;;23.70;99.90;;;;;;5053663;28;20021;-79
2023/07/16 04:27:24;;;;;;;18.77;9.90;;;23.70;99.90;;;;;;5052244;28;20040;-79
2023/07/16 04:29:50;;;;;;;15.05;10.18;;;23.80;99.90;;;;;;5053811;28;20021;-79
2023/07/16 04:32:16;;;;;;;15.95;10.00;;;;;;;;;;5053208;28;20021;-79
2023/07/16 04:34:42;;;;;;;19.10;9.48;;;;;;;;;;5053157;28;20104;-79
2023/07/16 04:37:08;;;;;;;14.93;8.88;;;;;;;;;;5053529;28;20020;-79
2023/07/16 04:39:34;;;;;;;17.02;9.82;;;;;;;;;;5053525;28;20009;-79
2023/07/16 04:42:00;;;;;;;17.63;9.73;;;;;;;;;;5051644;28;20017;-79
2023/07/16 04:44:27;;;;;;;19.27;9.10;;;;;;;;;;5053079;28;20100;-79
2023/07/16 04:46:53;;;;;;;15.38;9.95;;;;;;;;;;5052918;28;20029;-79
2023/07/16 04:49:19;;;;;;;23.85;12.02;;;;;;;;;;5052929;28;20033;-78
2023/07/16 04:51:45;;;;;;;20.25;11.52;;;;;;;;;;5053212;28;20012;-79
2023/07/16 04:54:11;;;;;;;22.42;12.13;;;;;;;;;;5053655;28;20096;-79
2023/07/16 04:56:37;;;;;;;26.27;13.00;;;;;;;;;;5052832;28;20017;-78
2023/07/16 04:59:03;;;;;;;20.20;11.60;;;;;;;;;;5052801;28;20374;-78
2023/07/16 05:01:29;;;;;;;22.67;12.00;;;;;;;;;;5052787;28;20468;-78
2023/07/16 05:03:55;;;;;;;16.98;11.15;;;;;;;;;;5045318;28;20523;-78
2023/07/16 05:06:22;;;;;;;22.55;12.48;;;;;;;;;;5052953;28;20458;-78
2023/07/16 05:08:48;;;;;;;21.48;11.13;;;;;;;;;;5052937;28;20459;-79
2023/07/16 05:11:14;;;;;;;17.27;11.50;;;;;;;;;;5051834;28;20021;-79
2023/07/16 05:13:40;;;;;;;23.13;10.65;;;;;;;;;;5051951;28;20404;-79
2023/07/16 05:16:06;;;;;;;20.38;10.98;;;;;;;;;;5052213;28;20021;-79
2023/07/16 05:18:32;;;;;;;18.65;11.13;;;;;;;;;;5052983;28;20067;-79
2023/07/16 05:20:58;;;;;;;18.70;11.20;;;;;;;;;;5050825;28;20025;-78
2023/07/16 05:23:25;;;;;;;19.40;12.00;;;;;;;;;;5052349;28;20013;-79
2023/07/16 05:25:51;;;;;;;20.17;12.02;;;;;;;;;;5053075;28;20024;-78
2023/07/16 05:28:18;;;;;;;21.25;11.88;;;;;;;;;;5052880;28;20033;-79
2023/07/16 05:30:44;;;;;;;23.17;11.70;;;;;;;;;;5046664;28;20009;-78
2023/07/16 05:33:11;;;;;;;17.65;11.00;;;;;;;;;;5052884;28;20021;-79
2023/07/16 05:35:37;;;;;;;20.10;11.48;;;;;;;;;;5053292;28;20059;-78
2023/07/16 05:38:03;;;;;;;18.75;10.90;;;;;;;;;;5051561;28;20459;-78
2023/07/16 05:40:29;;;;;;;19.33;11.57;;;;;;;;;;5051204;28;20017;-78
2023/07/16 05:42:55;;;;;;;25.73;12.48;;;;;;;;;;5052646;28;20024;-78
2023/07/16 05:45:23;;;;;;;24.40;12.18;;;;;;;;;;5052678;28;20035;-79
2023/07/16 05:47:49;;;;;;;19.85;11.52;;;;;;;;;;5052304;28;20072;-79
2023/07/16 05:50:15;;;;;;;17.20;11.25;;;;;;;;;;5052993;28;20366;-79
2023/07/16 05:52:41;;;;;;;17.00;10.88;;;;;;;;;;5051257;28;20439;-79
2023/07/16 05:55:08;;;;;;;21.45;10.45;;;;;;;;;;5053604;28;20021;-79
2023/07/16 05:57:34;;;;;;;24.27;11.10;;;;;;;;;;5056122;28;20017;-78
2023/07/16 06:00:00;;;;;;;16.25;11.85;;;;;;;;;;5055886;28;20096;-79
2023/07/16 06:02:26;;;;;;;18.90;11.63;;;;;;;;;;5056032;28;20104;-78
2023/07/16 06:04:52;;;;;;;22.23;11.32;;;;;;;;;;5054771;28;20021;-79
2023/07/16 06:07:18;;;;;;;19.13;11.85;;;;;;;;;;5056099;28;20029;-78
2023/07/16 06:09:44;;;;;;;19.70;11.63;;;;;;;;;;5054725;28;20025;-80
2023/07/16 06:12:10;;;;;;;16.63;10.38;;;;;;;;;;5053809;28;20115;-80
2023/07/16 06:14:36;;;;;;;18.23;10.02;;;;;;;;;;5054381;28;20459;-78
2023/07/16 06:17:03;;;;;;;16.38;11.13;;;;;;;;;;5052018;28;20025;-79
2023/07/16 06:19:29;;;;;;;18.10;10.45;;;;;;;;;;5054964;28;20375;-79
2023/07/16 06:21:55;;;;;;;20.30;11.43;;;;;;;;;;5056044;28;20096;-79
2023/07/16 06:24:21;;;;;;;18.02;10.73;;;;;;;;;;5055414;28;20021;-78
2023/07/16 06:26:47;;;;;;;16.08;10.20;;;;;;;;;;5054955;28;20013;-79
2023/07/16 06:29:14;;;;;;;24.25;10.30;;;;;;;;;;5055593;28;20037;-78
2023/07/16 06:31:40;;;;;;;18.27;10.85;;;;;;;;;;5055361;28;20028;-78
2023/07/16 06:34:06;;;;;;;16.13;9.70;;;;;;;;;;5054843;28;20029;-78
2023/07/16 06:36:32;;;;;;;16.95;9.63;;;;;;;;;;5055554;28;20016;-78
2023/07/16 06:39:00;;;;;;;17.27;9.82;;;;;;;;;;5054812;28;20021;-79
2023/07/16 06:41:26;;;;;;;16.20;10.85;;;;;;;;;;5053570;28;20108;-78
2023/07/16 06:43:52;;;;;;;17.08;9.73;;;;;;;;;;5055016;28;20277;-78
2023/07/16 06:46:18;;;;;;;14.32;9.70;;;;;;;;;;5054928;28;20065;-79
2023/07/16 06:48:44;;;;;;;15.68;9.48;;;;;;;;;;5055031;28;20509;-78
2023/07/16 06:51:10;;;;;;;16.15;9.52;;;;;;;;;;5054731;28;20464;-79
2023/07/16 06:53:37;;;;;;;18.88;9.80;;;;;;;;;;5054441;28;20047;-80
2023/07/16 06:56:03;;;;;;;19.38;9.43;;;;;;;;;;5053771;28;20079;-78
2023/07/16 06:58:35;;;;;;;17.70;9.38;;;;;;;;;;5054732;28;20075;-80
2023/07/16 07:01:05;;;;;;;15.35;9.55;;;;;;;;;;5054333;28;20108;-80
2023/07/16 07:03:33;;;;;;;14.27;10.15;;;;;;;;;;5055312;28;20452;-77
2023/07/16 07:05:59;;;;;;;21.20;9.80;;;;;;;;;;5055612;28;20439;-78
2023/07/16 07:08:25;;;;;;;16.98;10.15;;;;;;;;;;5055106;28;20033;-79
2023/07/16 07:10:51;;;;;;;15.68;9.82;;;;;;;;;;5055150;28;20029;-78
2023/07/16 07:13:17;;;;;;;16.65;9.48;;;;;;;;;;5054979;28;20410;-78
2023/07/16 07:15:44;;;;;;;15.07;9.57;;;;;;;;;;5054718;28;20088;-77
2023/07/16 07:18:10;;;;;;;20.02;9.18;;;;;;;;;;5054960;28;20480;-78
2023/07/16 07:20:36;;;;;;;13.73;9.55;;;;;;;;;;5055038;28;20052;-77
2023/07/16 07:23:03;;;;;;;14.93;9.40;;;;;;;;;;5054917;28;20021;-77
2023/07/16 07:25:29;;;;;;;20.33;9.32;;;;;;;;;;5055300;28;20033;-78
2023/07/16 07:27:55;;;;;;;13.88;9.50;;;;;;;;;;5070084;28;20029;-78
2023/07/16 07:30:21;;;;;;;13.60;10.10;;;;;;;;;;5054806;28;20009;-77
2023/07/16 07:32:47;;;;;;;16.60;9.73;;;;;;;;;;5054391;28;20024;-79
2023/07/16 07:35:14;;;;;;;13.27;9.57;;;;;;;;;;5054875;28;20021;-78
2023/07/16 07:37:40;;;;;;;14.15;9.15;;;;;;;;;;5054386;28;20021;-77
2023/07/16 07:40:07;;;;;;;19.52;9.35;;;;;;;;;;5054860;28;20024;-78
2023/07/16 07:42:33;;;;;;;14.45;9.50;;;;;;;;;;5054603;28;20108;-78
2023/07/16 07:45:00;;;;;;;16.33;9.35;;;;;;;;;;5055016;28;20017;-78
2023/07/16 07:47:26;;;;;;;15.07;9.48;;;;;;;;;;5053035;28;20049;-78
2023/07/16 07:49:57;;;;;;;16.85;9.35;;;;;;;;;;5054494;28;20025;-77
2023/07/16 07:52:23;;;;;;;15.40;9.57;;;;;;;;;;5054476;28;20035;-79
2023/07/16 07:54:50;;;;;;;18.50;9.35;;;;;;;;;;5054207;28;20025;-79
2023/07/16 07:57:16;;;;;;;15.15;10.05;;;;;;;;;;5052167;28;20021;-77
2023/07/16 07:59:42;;;;;;;13.93;9.82;;;;;;;;;;5054243;28;20036;-79
2023/07/16 08:02:08;;;;;;;16.42;9.45;;;;;;;;;;5054020;28;20066;-79
2023/07/16 08:04:34;;;;;;;19.00;9.98;;;;;;;;;;5053894;28;20024;-79
2023/07/16 08:07:00;;;;;;;22.70;10.88;;;;;;;;;;5054488;28;20387;-79
2023/07/16 08:09:27;;;;;;;15.57;8.93;;;;;;;;;;5054229;28;20090;-79
2023/07/16 08:11:53;;;;;;;16.05;10.18;;;;;;;;;;5053936;28;20435;-79
2023/07/16 08:14:19;;;;;;;16.27;10.00;;;;;;;;;;5052958;28;20336;-78
2023/07/16 08:16:45;;;;;;;16.83;9.73;;;;;;;;;;5052781;28;20459;-79
2023/07/16 08:19:11;;;;;;;15.07;10.15;;;;;;;;;;5052337;28;20456;-81
2023/07/16 08:21:37;;;;;;;20.45;11.10;;;;;;;;;;5051164;28;20024;-79
2023/07/16 08:24:05;;;;;;;17.50;10.48;;;;;;;;;;5051810;28;20036;-79
2023/07/16 08:26:31;;;;;;;15.52;10.02;;;;;;;;;;5053058;28;20021;-80
2023/07/16 08:28:57;;;;;;;19.42;11.02;;;;;;;;;;5053096;28;20033;-79
2023/07/16 08:31:23;;;;;;;19.83;10.25;;;;;;;;;;5052864;28;20020;-80
2023/07/16 08:33:49;;;;;;;24.55;11.20;;;;;;;;;;5052816;28;20363;-78
2023/07/16 08:36:15;;;;;;;16.58;10.55;;;;;;;;;;5051661;28;20116;-79
2023/07/16 08:38:42;;;;;;;16.58;10.30;;;;;;;;;;5053082;28;20066;-79
2023/07/16 08:41:08;;;;;;;22.80;10.77;;;;;;;;;;5053694;28;20025;-79
2023/07/16 08:43:34;;;;;;;16.83;10.18;;;;;;;;;;5053380;28;20019;-78
2023/07/16 08:46:01;;;;;;;17.17;10.88;;;;;;;;;;5052657;28;20024;-78
2023/07/16 08:48:29;;;;;;;20.20;10.55;;;;;;;;;;5051021;28;20047;-78
2023/07/16 08:50:56;;;;;;;16.92;11.15;;;;;;;;;;5052871;28;20029;-80
2023/07/16 08:53:22;;;;;;;16.65;9.93;;;;;;;;;;5052055;28;20021;-78
2023/07/16 08:55:48;;;;;;;21.23;11.45;;;;;;;;;;5052243;28;20113;-80
2023/07/16 08:58:15;;;;;;;17.50;11.60;;;;;;;;;;5053570;28;20024;-77
2023/07/16 09:00:44;;;;;;;24.20;12.02;;;;;;;;;;5052057;28;20017;-79
2023/07/16 09:03:13;;;;;;;18.92;12.02;;;;;;;;;;5053274;28;20029;-78
2023/07/16 09:05:40;;;;;;;14.38;12.02;;;;;;;;;;5053549;28;20102;-78
2023/07/16 09:08:06;;;;;;;30.52;12.50;;;;;;;;;;5051714;28;20136;-78
2023/07/16 09:10:32;;;;;;;20.50;12.57;;;;;;;;;;5053010;28;20035;-80
2023/07/16 09:12:59;;;;;;;17.10;12.77;;;;;;;;;;5053133;28;20024;-79
2023/07/16 09:15:27;;;;;;;17.55;12.00;;;;;;;;;;5053218;28;20019;-80
2023/07/16 09:17:54;;;;;;;17.67;13.20;;;;;;;;;;5051903;28;20037;-79
2023/07/16 09:20:20;;;;;;;16.27;13.15;;;;;;;;;;5053244;28;20099;-80
2023/07/16 09:22:48;;;;;;;17.85;13.30;;;;;;;;;;5052352;28;20013;-79
2023/07/16 09:25:14;;;;;;;21.90;14.00;;;;;;;;;;5053038;28;20021;-79
2023/07/16 09:27:40;;;;;;;18.80;11.95;;;;;;;;;;5052778;28;20036;-79
2023/07/16 09:30:06;;;;;;;18.20;11.90;;;;;;;;;;5050457;28;20044;-79
2023/07/16 09:32:37;;;;;;;15.77;12.77;;;;;;;;;;5068505;28;20471;-78
2023/07/16 09:35:13;;;;;;;18.83;12.77;;;;;;;;;;5056203;28;20076;-79
2023/07/16 09:37:39;;;;;;;17.77;14.60;;;;;;;;;;5055540;28;20544;-77
2023/07/16 09:40:10;;;;;;;17.20;14.45;;;;;;;;;;5055152;28;20025;-79
2023/07/16 09:42:42;;;;;;;18.67;12.50;;;;;;;;;;5056328;28;20025;-77
2023/07/16 09:45:09;;;;;;;17.48;12.65;;;;;;;;;;5040904;28;20371;-78
2023/07/16 09:47:36;;;;;;;14.90;11.85;;;;;;;;;;5052924;28;20443;-82
2023/07/16 09:50:09;;;;;;;15.25;13.65;;;;;;;;;;5056575;28;20021;-84
2023/07/16 09:52:35;;;;;;;18.58;15.02;;;;;;;;;;5055505;28;20025;-84
2023/07/16 09:55:03;;;;;;;22.30;15.63;;;;;;;;;;5056549;28;20017;-78
2023/07/16 09:57:30;;;;;;;18.13;15.55;;;;;;;;;;5056701;28;20021;-78
2023/07/16 09:59:59;;;;;;;18.77;15.43;;;;;;;;;;5056357;28;20078;-78
2023/07/16 10:02:25;;;;;;;18.13;14.40;;;;;;;;;;5055868;28;20017;-78
2023/07/16 10:04:55;;;;;;;20.38;13.00;;;;;;;;;;5055616;28;20017;-78
2023/07/16 10:07:26;;;;;;;16.10;13.30;;;;;;;;;;5051459;28;20029;-77
2023/07/16 10:09:56;;;;;;;17.92;13.85;;;;;;;;;;5055821;28;20025;-78
2023/07/16 10:12:23;;;;;;;20.20;14.20;;;;;;;;;;5054405;28;20046;-77
2023/07/16 10:14:50;;;;;;;17.70;13.38;;;;;;;;;;5054615;28;20032;-77
2023/07/16 10:17:18;;;;;;;19.52;14.68;;;;;;;;;;5055059;28;20455;-77
2023/07/16 10:19:50;;;;;;;17.58;13.65;;;;;;;;;;5070307;28;20024;-78
2023/07/16 10:22:18;;;;;;;19.08;13.07;;;;;;;;;;5055775;28;20410;-78
2023/07/16 10:24:44;;;;;;;19.33;12.82;;;;;;;;;;5054227;28;20021;-78
2023/07/16 10:27:13;;;;;;;16.50;12.90;;;;;;;;;;5055633;28;20067;-78
2023/07/16 10:29:39;;;;;;;18.45;14.07;;;;;;;;;;5055268;28;20028;-79
2023/07/16 10:32:07;;;;;;;18.52;13.02;;;;;;;;;;5053967;28;20460;-78
2023/07/16 10:34:36;;;;;;;19.20;13.48;;;;;;;;;;5055434;28;20021;-79
2023/07/16 10:37:03;;;;;;;17.83;13.38;;;;;;;;;;5053806;28;20028;-79
2023/07/16 10:39:29;;;;;;;18.83;13.00;;;;;;;;;;5055400;28;20036;-79
2023/07/16 10:41:57;;;;;;;15.68;13.07;;;;;;;;;;5054942;28;20514;-78
2023/07/16 10:44:25;;;;;;;16.02;12.52;;;;;;;;;;5055400;28;20367;-79
2023/07/16 10:46:55;;;;;;;22.83;12.68;;;;;;;;;;5054660;28;20013;-78
2023/07/16 10:49:28;;;;;;;18.27;12.60;;;;;;;;;;5054869;28;20020;-77
2023/07/16 10:51:54;;;;;;;18.70;12.05;;;;;;;;;;5054833;28;20021;-77
2023/07/16 10:54:21;;;;;;;15.65;12.27;;;;;;;;;;5054229;28;20029;-77
2023/07/16 10:56:48;;;;;;;19.55;11.82;;;;;;;;;;5054497;28;20108;-77
2023/07/16 10:59:14;;;;;;;21.90;11.52;;;;;;;;;;5055864;28;20036;-78
2023/07/16 11:01:40;;;;;;;15.40;12.68;;;;;;;;;;5055329;28;20021;-78
2023/07/16 11:04:10;;;;;;;19.75;12.88;;;;;;;;;;5054356;28;20024;-78
2023/07/16 11:06:36;;;;;;;17.90;12.20;;;;;;;;;;5054054;28;20019;-77
2023/07/16 11:09:12;;;;;;;19.75;13.50;;;;;;;;;;5054485;28;20455;-77
2023/07/16 11:11:40;;;;;;;19.27;13.13;;;;;;;;;;5055522;28;20021;-77
2023/07/16 11:14:07;;;;;;;15.40;11.82;;;;;;;;;;5053925;28;20021;-78
2023/07/16 11:16:35;;;;;;;16.90;11.18;;;;;;;;;;5055174;28;20032;-78
2023/07/16 11:19:02;;;;;;;17.67;11.50;;;;;;;;;;5053106;28;20025;-78
2023/07/16 11:21:28;;;;;;;13.77;11.75;;;;;;;;;;5053691;28;20013;-78
2023/07/16 11:23:54;;;;;;;19.05;11.15;;;;;;;;;;5053865;28;20029;-78
2023/07/16 11:26:24;;;;;;;15.18;12.20;;;;;;;;;;5055107;28;20016;-78
2023/07/16 11:28:51;;;;;;;16.65;10.90;;;;;;;;;;5055240;28;20036;-78
2023/07/16 11:31:17;;;;;;;15.45;11.52;;;;;;;;;;5054516;28;20013;-79
2023/07/16 11:33:44;;;;;;;14.65;9.85;;;;;;;;;;5053476;28;20132;-77
2023/07/16 11:36:11;;;;;;;12.23;9.15;;;;;;;;;;5070232;28;20364;-78
2023/07/16 11:38:38;;;;;;;17.27;10.32;;;;;;;;;;5054815;28;20031;-78
2023/07/16 11:41:04;;;;;;;14.20;10.10;;;;;;;;;;5053233;28;20473;-78
2023/07/16 11:43:35;;;;;;;12.65;9.57;;;;;;;;;;5053437;28;20028;-80
2023/07/16 11:46:01;;;;;;;13.05;9.43;;;;;;;;;;5053395;28;20032;-79
2023/07/16 11:48:28;;;;;;;14.95;9.93;;;;;;;;;;5054495;28;20040;-79
2023/07/16 11:50:54;;;;;;;20.52;10.57;;;;;;;;;;5053392;28;20028;-79
2023/07/16 11:53:20;;;;;;;16.27;9.27;;;;;;;;;;5052941;28;20025;-78
2023/07/16 11:55:46;;;;;;;12.98;8.25;;;;;;;;;;5053858;28;20363;-78
2023/07/16 11:58:12;;;;;;;12.18;8.15;;;;;;;;;;5052849;28;20475;-78
2023/07/16 12:00:38;;;;;;;12.32;9.18;;;;;;;;;;5052355;28;20021;-77
2023/07/16 12:03:04;;;;;;;15.23;10.25;;;;;;;;;;5052381;28;20021;-78
2023/07/16 12:05:30;;;;;;;13.52;10.57;;;;;;;;;;5052402;28;20124;-77
2023/07/16 12:07:57;;;;;;;15.13;11.07;;;;;;;;;;5047557;28;20033;-77
2023/07/16 12:10:23;;;;;;;13.45;10.77;;;;;;;;;;5052144;28;20102;-77
2023/07/16 12:12:49;;;;;;;12.32;10.77;;;;;;;;;;5052946;28;20021;-78
2023/07/16 12:15:16;;;;;;;20.23;11.68;;;;;;;;;;5053191;28;20029;-79
2023/07/16 12:17:42;;;;;;;16.05;10.52;;;;;;;;;;5052934;28;20114;-78
2023/07/16 12:20:09;;;;;;;15.02;10.95;;;;;;;;;;5052945;28;20093;-78
2023/07/16 12:22:36;;;;;;;17.77;10.77;;;;;;;;;;5053171;28;20017;-78
2023/07/16 12:25:02;;;;;;;15.00;11.20;;;;;;;;;;5052197;28;20017;-78
2023/07/16 12:27:28;;;;;;;17.92;11.50;;;;;;;;;;5053296;28;20017;-77
2023/07/16 12:29:54;;;;;;;17.95;11.27;;;;;;;;;;5053665;28;20139;-77
2023/07/16 12:32:21;;;;;;;15.98;10.73;;;;;;;;;;5053795;28;20021;-77
2023/07/16 12:34:47;;;;;;;13.07;10.25;;;;;;;;;;5053344;28;20013;-77
2023/07/16 12:37:13;;;;;;;13.45;9.23;;;;;;;;;;5053175;28;20025;-77
2023/07/16 12:39:39;;;;;;;11.68;9.82;;;;;;;;;;5053012;28;20301;-77
2023/07/16 12:42:05;;;;;;;11.27;9.20;;;;;;;;;;5053699;28;20363;-77
2023/07/16 12:44:32;;;;;;;11.73;9.23;;;;;;;;;;5053329;28;20025;-77
2023/07/16 12:46:58;;;;;;;16.08;9.88;;;;;;;;;;5053580;28;20016;-77
2023/07/16 12:49:24;;;;;;;14.70;9.10;;;;;;;;;;5053473;28;20095;-77
2023/07/16 12:51:50;;;;;;;14.27;9.68;;;;;;;;;;5051597;28;20413;-76
2023/07/16 12:54:16;;;;;;;13.65;9.13;;;;;;;;;;5052608;28;20358;-77
2023/07/16 12:56:42;;;;;;;14.60;8.75;;;;;;;;;;5047691;28;20016;-77
2023/07/16 12:59:08;;;;;;;11.40;8.88;;;;;;;;;;5052439;28;20024;-77
2023/07/16 13:01:35;;;;;;;16.77;7.72;;;;;;;;;;5052336;28;20013;-77
2023/07/16 13:04:01;;;;;;;12.77;8.45;;;;;;;;;;5053733;28;20017;-76
2023/07/16 13:06:27;;;;;;;9.68;7.50;;;;;;;;;;5055408;28;20017;-76
2023/07/16 13:08:53;;;;;;;12.63;7.13;;;;;;;;;;5055407;28;20033;-76
2023/07/16 13:11:19;;;;;;;9.30;6.80;;;;;;;;;;5056454;28;20650;-77
2023/07/16 13:13:45;;;;;;;10.98;7.30;;;;;;;;;;5056868;28;20401;-77
2023/07/16 13:16:12;;;;;;;8.00;6.78;;;;;;;;;;5056925;28;20023;-77
2023/07/16 13:18:41;;;;;;;19.38;6.85;;;;;;;;;;5056946;28;20083;-76
2023/07/16 13:21:07;;;;;;;11.18;7.20;;;;;;;;;;5055575;28;20063;-77
2023/07/16 13:23:35;;;;;;;9.65;6.63;;;;;;;;;;5056773;28;20032;-77
2023/07/16 13:26:01;;;;;;;10.40;6.18;;;;;;;;;;5056736;28;20020;-76
2023/07/16 13:28:27;;;;;;;9.52;5.78;;;;;;;;;;5056238;28;20479;-77
2023/07/16 13:30:54;;;;;;;10.23;6.13;;;;;;;;;;5056221;28;20020;-76
2023/07/16 13:33:20;;;;;;;10.70;5.72;;;;;;;;;;5056141;28;20017;-77
2023/07/16 13:35:46;;;;;;;10.30;5.75;;;;;;;;;;5055964;28;20033;-77
2023/07/16 13:38:13;;;;;;;9.00;4.93;;;;;;;;;;5056527;28;20024;-78
2023/07/16 13:40:39;;;;;;;7.13;4.68;;;;;;;;;;5055539;28;20020;-78
2023/07/16 13:43:05;;;;;;;6.45;4.30;;;;;;;;;;5056645;28;20021;-77
2023/07/16 13:45:33;;;;;;;8.63;4.07;;;;;;;;;;5055524;28;20367;-78
2023/07/16 13:47:59;;;;;;;6.25;3.95;;;;;;;;;;5056438;28;20098;-79
2023/07/16 13:50:25;;;;;;;9.93;3.80;;;;;;;;;;5056515;28;20017;-78
2023/07/16 13:52:52;;;;;;;5.63;4.15;;;;;;;;;;5056720;28;20028;-77
2023/07/16 13:55:18;;;;;;;7.97;4.03;;;;;;;;;;5056832;28;20070;-78
2023/07/16 13:57:45;;;;;;;8.05;4.50;;;;;;;;;;5056080;28;20074;-78
2023/07/16 14:00:12;;;;;;;6.32;4.05;;;;;;;;;;5055272;28;20112;-78